createdAt,value
2023-03-11T00:00:47.430Z,99683.09
2023-03-11T00:03:17.913Z,99701.19
2023-03-11T00:05:46.788Z,99691.97
2023-03-11T00:08:18.365Z,99698.03
2023-03-11T00:10:47.922Z,99699.16
2023-03-11T00:13:17.033Z,99699.75
2023-03-11T00:15:48.434Z,99719.31
2023-03-11T00:18:16.207Z,99732.53
2023-03-11T00:20:46.322Z,99729.31
2023-03-11T00:23:15.289Z,99717.16
2023-03-11T00:25:46.080Z,99716.25
2023-03-11T00:28:14.490Z,99733.91
2023-03-11T00:30:43.500Z,99733.81
2023-03-11T00:46:28.343Z,99714.03
2023-03-11T00:49:12.283Z,99739.41
2023-03-11T00:51:39.441Z,99722.78
2023-03-11T00:54:06.396Z,99747.22
2023-03-11T00:56:33.603Z,99776.09
2023-03-11T00:59:00.900Z,99798.31
2023-03-11T01:01:28.051Z,99757.25
2023-03-11T01:03:55.070Z,99766.69
2023-03-11T01:06:23.380Z,99735.94
2023-03-11T01:08:52.422Z,99757.66
2023-03-11T01:11:19.364Z,99827.06
2023-03-11T01:13:46.632Z,99777.34
2023-03-11T01:16:14.689Z,99779.78
2023-03-11T01:18:42.922Z,99796.91
2023-03-11T01:25:36.532Z,99817.91
2023-03-11T01:28:03.539Z,99767.34
2023-03-11T01:30:30.976Z,99797.28
2023-03-11T01:32:58.414Z,99796.34
2023-03-11T01:35:29.174Z,99837.59
2023-03-11T01:37:57.427Z,99817.16
2023-03-11T01:40:53.939Z,99851.84
2023-03-11T01:43:39.841Z,99875.38
2023-03-11T01:46:25.693Z,99834.19
2023-03-11T01:48:55.637Z,99823.84
2023-03-11T01:51:46.913Z,99843.31
2023-03-11T01:54:27.784Z,99892.50
2023-03-11T01:56:56.119Z,99916.44
2023-03-11T01:59:28.860Z,99862.66
2023-03-11T02:02:25.414Z,99905.00
2023-03-11T02:04:53.557Z,99886.22
2023-03-11T02:07:23.418Z,99854.72
2023-03-11T02:09:50.751Z,99863.16
2023-03-11T02:12:18.306Z,99839.09
2023-03-11T02:14:51.118Z,99908.69
2023-03-11T02:17:18.283Z,99857.22
2023-03-11T02:20:16.578Z,99916.09
2023-03-11T02:22:44.604Z,99888.16
2023-03-11T02:25:34.828Z,99914.00
2023-03-11T02:28:06.025Z,99885.09
2023-03-11T02:30:35.109Z,99879.00
2023-03-11T02:33:03.752Z,99942.53
2023-03-11T02:35:31.663Z,99868.81
2023-03-11T02:38:00.092Z,99888.91
2023-03-11T02:40:51.682Z,99929.72
2023-03-11T02:43:42.326Z,99923.97
2023-03-11T02:46:11.684Z,99908.25
2023-03-11T02:48:39.403Z,99856.47
2023-03-11T02:51:06.880Z,99940.91
2023-03-11T02:53:42.631Z,99951.72
2023-03-11T02:56:10.342Z,99951.66
2023-03-11T02:58:37.308Z,99940.59
2023-03-11T03:01:04.523Z,99910.66
2023-03-11T03:03:31.493Z,99926.41
2023-03-11T03:05:58.472Z,99930.28
2023-03-11T03:08:25.435Z,99948.94
2023-03-11T03:10:53.958Z,99955.16
2023-03-11T03:13:20.970Z,99928.41
2023-03-11T03:15:47.954Z,99954.78
2023-03-11T03:18:14.966Z,99954.09
2023-03-11T03:20:41.938Z,99955.09
2023-03-11T03:23:09.147Z,99952.25
2023-03-11T03:25:36.441Z,99966.25
2023-03-11T03:28:06.935Z,99947.06
2023-03-11T03:30:36.640Z,99965.25
2023-03-11T03:33:04.675Z,99965.88
2023-03-11T03:35:32.464Z,99955.09
2023-03-11T03:38:09.581Z,99942.88
2023-03-11T03:40:37.871Z,99992.13
2023-03-11T03:43:06.357Z,99997.78
2023-03-11T03:45:35.201Z,100021.09
2023-03-11T03:48:02.474Z,99940.09
2023-03-11T03:50:33.070Z,99986.78
2023-03-11T03:53:00.166Z,100021.44
2023-03-11T03:55:27.406Z,100014.59
2023-03-11T03:57:54.966Z,99979.78
2023-03-11T04:00:25.314Z,100025.41
2023-03-11T04:02:58.085Z,100023.09
2023-03-11T04:05:33.190Z,100041.00
2023-03-11T04:08:00.671Z,100036.91
2023-03-11T04:10:28.537Z,100037.25
2023-03-11T04:12:55.610Z,100034.03
2023-03-11T04:15:22.545Z,100056.97
2023-03-11T04:17:49.638Z,100055.41
2023-03-11T04:20:16.832Z,100035.19
2023-03-11T04:22:46.724Z,100034.28
2023-03-11T04:25:13.660Z,100062.47
2023-03-11T04:27:42.660Z,100044.56
2023-03-11T04:30:11.031Z,100045.25
2023-03-11T04:32:38.231Z,100044.56
2023-03-11T04:35:06.600Z,100057.75
2023-03-11T04:37:34.040Z,100076.16
2023-03-11T04:40:01.576Z,100084.69
2023-03-11T04:42:30.142Z,100081.97
2023-03-11T04:44:57.471Z,100075.25
2023-03-11T04:47:25.930Z,100061.34
2023-03-11T04:49:52.965Z,100065.78
2023-03-11T04:52:20.036Z,100056.09
2023-03-11T04:54:47.308Z,100080.41
2023-03-11T04:57:14.610Z,100087.69
2023-03-11T04:59:43.879Z,100073.28
2023-03-11T05:02:13.003Z,100081.00
2023-03-11T05:04:45.408Z,100109.59
2023-03-11T05:07:14.402Z,100088.00
2023-03-11T05:09:41.487Z,100102.78
2023-03-11T05:12:12.397Z,100091.56
2023-03-11T05:14:40.771Z,100075.38
2023-03-11T05:17:10.056Z,100124.69
2023-03-11T05:19:37.160Z,100122.38
2023-03-11T05:22:11.014Z,100126.53
2023-03-11T05:24:38.252Z,100116.88
2023-03-11T05:27:05.608Z,100114.06
2023-03-11T05:29:33.757Z,100110.78
2023-03-11T05:32:00.734Z,100128.09
2023-03-11T05:34:27.750Z,100123.28
2023-03-11T05:36:54.814Z,100138.56
2023-03-11T05:39:22.695Z,100123.94
2023-03-11T05:41:49.861Z,100154.31
2023-03-11T05:44:17.102Z,100140.41
2023-03-11T05:46:44.256Z,100157.88
2023-03-11T05:49:11.235Z,100153.34
2023-03-11T05:51:38.517Z,100158.44
2023-03-11T05:54:11.391Z,100158.53
2023-03-11T05:56:40.191Z,100128.38
2023-03-11T05:59:08.589Z,100162.50
2023-03-11T06:01:36.937Z,100181.22
2023-03-11T06:04:04.573Z,100172.28
2023-03-11T06:06:32.036Z,100179.56
2023-03-11T06:08:59.374Z,100184.03
2023-03-11T06:11:28.949Z,100201.38
2023-03-11T06:13:58.253Z,100172.84
2023-03-11T06:16:27.549Z,100209.28
2023-03-11T06:19:00.849Z,100219.03
2023-03-11T06:21:31.443Z,100179.94
2023-03-11T06:23:59.124Z,100220.88
2023-03-11T06:26:28.584Z,100172.38
2023-03-11T06:28:55.984Z,100179.31
2023-03-11T06:31:29.056Z,100217.31
2023-03-11T06:34:02.550Z,100202.84
2023-03-11T06:36:30.365Z,100239.50
2023-03-11T06:38:57.536Z,100240.03
2023-03-11T06:41:26.261Z,100243.88
2023-03-11T06:43:53.539Z,100231.28
2023-03-11T06:46:23.134Z,100237.91
2023-03-11T06:48:52.647Z,100231.28
2023-03-11T06:51:21.624Z,100258.16
2023-03-11T06:53:51.916Z,100254.38
2023-03-11T06:56:22.363Z,100204.00
2023-03-11T06:58:56.602Z,100239.31
2023-03-11T07:01:28.135Z,100261.50
2023-03-11T07:03:56.938Z,100271.97
2023-03-11T07:06:26.723Z,100280.75
2023-03-11T07:08:59.492Z,100273.38
2023-03-11T07:11:28.418Z,100294.34
2023-03-11T07:14:02.853Z,100220.94
2023-03-11T07:16:33.323Z,100327.59
2023-03-11T07:19:07.071Z,100272.94
2023-03-11T07:21:34.055Z,100246.19
2023-03-11T07:24:02.482Z,100299.44
2023-03-11T07:26:31.403Z,100268.00
2023-03-11T07:28:58.805Z,100253.44
2023-03-11T07:31:29.505Z,100332.22
2023-03-11T07:33:59.712Z,100318.91
2023-03-11T07:36:28.069Z,100340.94
2023-03-11T07:39:04.369Z,100326.28
2023-03-11T07:41:34.484Z,100336.75
2023-03-11T07:44:03.437Z,100318.56
2023-03-11T07:46:31.529Z,100352.94
2023-03-11T07:48:58.490Z,100331.25
2023-03-11T07:51:32.940Z,100361.97
2023-03-11T07:54:01.650Z,100341.13
2023-03-11T07:56:31.900Z,100363.81
2023-03-11T07:59:01.230Z,100372.97
2023-03-11T08:01:36.267Z,100310.34
2023-03-11T08:04:12.459Z,100375.19
2023-03-11T08:06:45.198Z,100376.53
2023-03-11T08:09:13.487Z,100387.50
2023-03-11T08:11:40.981Z,100386.38
2023-03-11T08:14:08.042Z,100392.06
2023-03-11T08:16:35.003Z,100378.53
2023-03-11T08:19:02.400Z,100408.44
2023-03-11T08:21:32.184Z,100400.25
2023-03-11T08:24:01.581Z,100411.97
2023-03-11T08:26:29.660Z,100404.44
2023-03-11T08:28:57.409Z,100402.84
2023-03-11T08:31:30.863Z,100430.91
2023-03-11T08:34:02.551Z,100427.19
2023-03-11T08:36:30.368Z,100426.44
2023-03-11T08:38:59.751Z,100390.63
2023-03-11T08:41:27.388Z,100433.84
2023-03-11T08:43:54.530Z,100425.84
2023-03-11T08:46:34.081Z,100403.81
2023-03-11T08:49:02.184Z,100431.97
2023-03-11T08:51:31.481Z,100451.53
2023-03-11T08:53:59.261Z,100438.06
2023-03-11T08:56:26.434Z,100401.41
2023-03-11T08:58:54.259Z,100445.13
2023-03-11T09:01:22.991Z,100445.22
2023-03-11T09:03:50.046Z,100428.31
2023-03-11T09:06:17.973Z,100444.50
2023-03-11T09:08:48.838Z,100440.81
2023-03-11T09:11:17.413Z,100382.66
2023-03-11T09:13:45.198Z,100438.34
2023-03-11T09:16:19.992Z,100469.94
2023-03-11T09:18:47.025Z,100471.50
2023-03-11T09:21:13.993Z,100459.56
2023-03-11T09:23:43.949Z,100459.72
2023-03-11T09:26:11.992Z,100472.25
2023-03-11T09:28:39.186Z,100441.03
2023-03-11T09:31:06.891Z,100470.44
2023-03-11T09:33:42.437Z,100463.66
2023-03-11T09:36:14.925Z,100468.50
2023-03-11T09:38:42.906Z,100477.28
2023-03-11T09:41:18.623Z,100476.34
2023-03-11T09:44:22.037Z,100477.13
2023-03-11T09:47:12.997Z,100462.94
2023-03-11T09:50:08.335Z,100482.59
2023-03-11T09:53:18.920Z,100473.41
2023-03-11T09:55:58.334Z,100490.13
2023-03-11T09:58:47.199Z,100475.09
2023-03-11T10:01:35.585Z,100462.63
2023-03-11T10:04:08.369Z,100482.94
2023-03-11T10:06:35.601Z,100478.66
2023-03-11T10:09:29.011Z,100480.00
2023-03-11T10:12:12.740Z,100486.13
2023-03-11T10:15:03.315Z,100491.19
2023-03-11T10:17:58.664Z,100493.56
2023-03-11T10:20:55.291Z,100501.59
2023-03-11T10:23:36.857Z,100500.16
2023-03-11T10:26:42.415Z,100479.94
2023-03-11T10:29:29.923Z,100494.94
2023-03-11T10:32:34.681Z,100478.22
2023-03-11T10:35:16.689Z,100488.41
2023-03-11T10:37:59.002Z,100490.53
2023-03-11T10:40:33.529Z,100492.41
2023-03-11T10:43:15.486Z,100497.44
2023-03-11T10:45:45.817Z,100510.34
2023-03-11T10:48:16.369Z,100482.34
2023-03-11T10:51:03.891Z,100499.31
2023-03-11T10:53:31.363Z,100505.63
2023-03-11T10:55:59.762Z,100492.91
2023-03-11T10:58:30.399Z,100509.59
2023-03-11T11:01:16.521Z,100512.47
2023-03-11T11:03:51.146Z,100474.09
2023-03-11T11:06:25.339Z,100512.59
2023-03-11T11:09:27.083Z,100516.38
2023-03-11T11:12:15.905Z,100477.41
2023-03-11T11:14:51.254Z,100504.59
2023-03-11T11:17:27.292Z,100514.28
2023-03-11T11:19:56.818Z,100519.19
2023-03-11T11:22:25.460Z,100506.81
2023-03-11T11:24:55.275Z,100532.31
2023-03-11T11:27:28.504Z,100536.47
2023-03-11T11:30:16.314Z,100545.56
2023-03-11T11:32:43.474Z,100527.63
2023-03-11T11:35:16.946Z,100540.75
2023-03-11T11:38:04.162Z,100527.78
2023-03-11T11:40:33.511Z,100518.94
2023-03-11T11:43:17.848Z,100513.31
2023-03-11T11:45:57.602Z,100507.16
2023-03-11T11:48:48.828Z,100525.16
2023-03-11T11:51:25.549Z,100531.09
2023-03-11T11:54:18.760Z,100517.44
2023-03-11T11:56:46.354Z,100527.59
2023-03-11T11:59:23.022Z,100517.94
2023-03-11T12:02:16.266Z,100516.06
2023-03-11T12:04:56.349Z,100513.53
2023-03-11T12:07:58.194Z,100515.66
2023-03-11T12:10:47.406Z,100522.09
2023-03-11T12:14:07.266Z,100511.34
2023-03-11T12:17:03.897Z,100474.59
2023-03-11T12:20:09.079Z,100518.56
2023-03-11T12:23:08.145Z,100503.34
2023-03-11T12:26:05.093Z,100512.72
2023-03-11T12:28:44.505Z,100522.03
2023-03-11T12:31:13.201Z,100507.91
2023-03-11T12:34:02.336Z,100515.84
2023-03-11T12:36:36.439Z,100519.72
2023-03-11T12:39:07.689Z,100471.34
2023-03-11T12:41:41.186Z,100512.00
2023-03-11T12:44:29.699Z,100504.38
2023-03-11T12:46:59.542Z,100523.94
2023-03-11T12:49:35.103Z,100521.56
2023-03-11T12:52:14.241Z,100522.53
2023-03-11T12:54:48.858Z,100526.97
2023-03-11T12:57:18.651Z,100523.25
2023-03-11T13:00:30.554Z,100527.56
2023-03-11T13:03:26.330Z,100525.09
2023-03-11T13:06:44.140Z,100517.34
2023-03-11T13:09:20.987Z,100525.59
2023-03-11T13:11:48.829Z,100528.03
2023-03-11T13:14:18.576Z,100517.75
2023-03-11T13:16:46.398Z,100482.94
2023-03-11T13:19:36.037Z,100529.34
2023-03-11T13:22:24.122Z,100505.66
2023-03-11T13:24:51.494Z,100528.03
2023-03-11T13:27:34.738Z,100513.78
2023-03-11T13:30:14.600Z,100524.59
2023-03-11T13:32:59.981Z,100536.13
2023-03-11T13:36:01.801Z,100533.53
2023-03-11T13:38:55.990Z,100537.50
2023-03-11T13:41:33.279Z,100536.34
2023-03-11T13:44:24.185Z,100549.75
2023-03-11T13:46:58.252Z,100544.38
2023-03-11T13:49:38.714Z,100551.25
2023-03-11T13:52:12.859Z,100546.28
2023-03-11T13:55:01.873Z,100566.91
2023-03-11T13:57:32.197Z,100556.31
2023-03-11T14:00:17.036Z,100562.50
2023-03-11T14:02:51.287Z,100565.34
2023-03-11T14:05:43.784Z,100564.25
2023-03-11T14:08:30.048Z,100572.81
2023-03-11T14:10:59.942Z,100578.34
2023-03-11T14:13:37.917Z,100588.13
2023-03-11T14:16:09.242Z,100590.81
2023-03-11T14:18:48.569Z,100585.75
2023-03-11T14:21:22.868Z,100571.72
2023-03-11T14:23:53.266Z,100570.25
2023-03-11T14:26:29.175Z,100576.72
2023-03-11T14:29:00.152Z,100580.38
2023-03-11T14:31:43.973Z,100592.38
2023-03-11T14:34:10.921Z,100599.84
2023-03-11T14:36:51.008Z,100601.59
2023-03-11T14:39:27.486Z,100600.44
2023-03-11T14:42:21.843Z,100592.09
2023-03-11T14:45:11.102Z,100595.00
2023-03-11T14:47:49.893Z,100588.44
2023-03-11T14:50:26.138Z,100594.59
2023-03-11T14:53:08.775Z,100590.84
2023-03-11T14:55:42.090Z,100594.59
2023-03-11T14:58:41.966Z,100578.03
2023-03-11T15:01:26.631Z,100607.88
2023-03-11T15:04:06.971Z,100593.59
2023-03-11T15:06:35.950Z,100541.69
2023-03-11T15:09:21.274Z,100596.31
2023-03-11T15:12:00.804Z,100605.22
2023-03-11T15:14:35.176Z,100563.59
2023-03-11T15:17:33.591Z,100592.66
2023-03-11T15:20:01.425Z,100584.59
2023-03-11T15:22:39.852Z,100593.69
2023-03-11T15:25:19.350Z,100585.09
2023-03-11T15:27:46.732Z,100592.03
2023-03-11T15:30:31.164Z,100586.44
2023-03-11T15:32:58.927Z,100589.84
2023-03-11T15:35:31.202Z,100556.97
2023-03-11T15:38:25.619Z,100594.03
2023-03-11T15:41:01.255Z,100595.06
2023-03-11T15:43:33.033Z,100597.66
2023-03-11T15:46:02.637Z,100566.03
2023-03-11T15:48:31.234Z,100571.56
2023-03-11T15:51:00.459Z,100574.00
2023-03-11T15:53:29.295Z,100584.59
2023-03-11T15:56:07.521Z,100577.22
2023-03-11T15:58:37.723Z,100584.69
2023-03-11T16:01:04.933Z,100580.50
2023-03-11T16:03:31.852Z,100573.28
2023-03-11T16:05:58.853Z,100595.06
2023-03-11T16:08:25.763Z,100596.78
2023-03-11T16:10:52.700Z,100592.84
2023-03-11T16:13:19.613Z,100540.91
2023-03-11T16:15:47.245Z,100597.63
2023-03-11T16:18:14.310Z,100605.25
2023-03-11T16:20:51.187Z,100606.25
2023-03-11T16:23:22.848Z,100605.91
2023-03-11T16:25:52.651Z,100598.97
2023-03-11T16:28:19.617Z,100553.91
2023-03-11T16:30:46.761Z,100600.22
2023-03-11T16:33:13.735Z,100575.66
2023-03-11T16:35:40.671Z,100594.19
2023-03-11T16:38:08.824Z,100602.13
2023-03-11T16:40:36.180Z,100586.25
2023-03-11T16:43:09.943Z,100607.88
2023-03-11T16:45:37.481Z,100592.97
2023-03-11T16:48:05.604Z,100615.16
2023-03-11T16:50:34.263Z,100602.91
2023-03-11T16:53:02.067Z,100579.16
2023-03-11T16:55:30.298Z,100615.47
2023-03-11T16:57:57.637Z,100594.63
2023-03-11T17:00:25.441Z,100581.75
2023-03-11T17:02:52.601Z,100604.41
2023-03-11T17:05:20.168Z,100584.09
2023-03-11T17:07:47.482Z,100597.97
2023-03-11T17:10:14.514Z,100622.56
2023-03-11T17:12:41.476Z,100618.50
2023-03-11T17:15:09.028Z,100603.19
2023-03-11T17:17:36.402Z,100621.53
2023-03-11T17:20:06.951Z,100614.97
2023-03-11T17:22:34.139Z,100614.72
2023-03-11T17:25:01.986Z,100614.72
2023-03-11T17:27:32.413Z,100570.28
2023-03-11T17:30:00.378Z,100618.81
2023-03-11T17:32:28.344Z,100626.16
2023-03-11T17:34:55.326Z,100611.25
2023-03-11T17:37:22.867Z,100629.78
2023-03-11T17:39:49.883Z,100614.03
2023-03-11T17:42:17.183Z,100624.97
2023-03-11T17:44:51.479Z,100604.03
2023-03-11T17:47:19.996Z,100640.63
2023-03-11T17:49:48.801Z,100636.56
2023-03-11T17:52:15.758Z,100594.44
2023-03-11T17:54:42.739Z,100621.22
2023-03-11T17:57:09.711Z,100633.28
2023-03-11T17:59:36.585Z,100607.94
2023-03-11T18:02:03.695Z,100629.31
2023-03-11T18:04:30.703Z,100636.41
2023-03-11T18:06:57.674Z,100635.94
2023-03-11T18:09:24.845Z,100618.97
2023-03-11T18:11:52.678Z,100636.59
2023-03-11T18:14:19.752Z,100661.91
2023-03-11T18:16:46.696Z,100654.91
2023-03-11T18:19:13.626Z,100652.78
2023-03-11T18:21:40.505Z,100653.09
2023-03-11T18:24:07.583Z,100651.47
2023-03-11T18:26:34.550Z,100664.38
2023-03-11T18:29:02.195Z,100649.97
2023-03-11T18:31:30.768Z,100664.53
2023-03-11T18:34:02.265Z,100661.16
2023-03-11T18:36:32.872Z,100671.38
2023-03-11T18:39:01.316Z,100650.00
2023-03-11T18:41:33.233Z,100667.53
2023-03-11T18:44:00.892Z,100677.84
2023-03-11T18:46:33.984Z,100662.50
2023-03-11T18:49:05.572Z,100674.16
2023-03-11T18:51:33.323Z,100671.50
2023-03-11T18:54:00.801Z,100646.28
2023-03-11T18:56:30.931Z,100644.63
2023-03-11T18:58:59.254Z,100650.09
2023-03-11T19:01:27.262Z,100642.50
2023-03-11T19:03:57.466Z,100665.53
2023-03-11T19:06:27.362Z,100654.91
2023-03-11T19:08:54.924Z,100664.63
2023-03-11T19:11:23.629Z,100660.63
2023-03-11T19:13:52.019Z,100659.16
2023-03-11T19:16:23.578Z,100652.47
2023-03-11T19:18:51.521Z,100661.38
2023-03-11T19:21:18.454Z,100661.00
2023-03-11T19:23:46.454Z,100679.84
2023-03-11T19:26:14.161Z,100674.16
2023-03-11T19:28:41.194Z,100661.16
2023-03-11T19:31:08.350Z,100672.31
2023-03-11T19:33:35.707Z,100675.31
2023-03-11T19:36:06.512Z,100662.09
2023-03-11T19:38:34.385Z,100691.72
2023-03-11T19:41:08.436Z,100693.69
2023-03-11T19:43:36.313Z,100688.59
2023-03-11T19:46:08.801Z,100676.63
2023-03-11T19:48:35.909Z,100679.47
2023-03-11T19:51:03.108Z,100684.78
2023-03-11T19:53:30.025Z,100671.97
2023-03-11T19:55:57.582Z,100687.34
2023-03-11T19:58:30.284Z,100680.25
2023-03-11T20:00:58.904Z,100680.47
2023-03-11T20:03:26.438Z,100684.78
2023-03-11T20:05:56.779Z,100696.19
2023-03-11T20:08:24.905Z,100700.72
2023-03-11T20:10:53.167Z,100699.19
2023-03-11T20:13:22.130Z,100708.75
2023-03-11T20:15:49.604Z,100695.81
2023-03-11T20:18:18.772Z,100707.16
2023-03-11T20:20:46.622Z,100708.00
2023-03-11T20:23:13.884Z,100691.75
2023-03-11T20:25:41.677Z,100678.53
2023-03-11T20:28:09.367Z,100693.47
2023-03-11T20:30:38.625Z,100717.97
2023-03-11T20:33:06.514Z,100682.59
2023-03-11T20:35:33.687Z,100709.81
2023-03-11T20:38:00.758Z,100700.38
2023-03-11T20:40:27.722Z,100656.53
2023-03-11T20:42:54.689Z,100675.00
2023-03-11T20:45:22.620Z,100686.22
2023-03-11T20:47:50.762Z,100710.31
2023-03-11T20:50:18.733Z,100700.56
2023-03-11T20:52:45.616Z,100711.53
2023-03-11T20:55:13.253Z,100690.44
2023-03-11T20:57:40.910Z,100676.84
2023-03-11T21:00:12.082Z,100719.25
2023-03-11T21:02:40.896Z,100725.34
2023-03-11T21:05:10.247Z,100721.63
2023-03-11T21:07:37.771Z,100708.63
2023-03-11T21:10:09.908Z,100730.53
2023-03-11T21:12:36.930Z,100730.31
2023-03-11T21:15:05.808Z,100737.94
2023-03-11T21:17:33.864Z,100726.03
2023-03-11T21:20:00.961Z,100727.47
2023-03-11T21:22:28.028Z,100720.75
2023-03-11T21:24:55.562Z,100719.56
2023-03-11T21:27:26.500Z,100717.06
2023-03-11T21:29:57.585Z,100734.88
2023-03-11T21:32:26.842Z,100740.00
2023-03-11T21:34:59.007Z,100734.66
2023-03-11T21:37:27.723Z,100740.72
2023-03-11T21:39:55.405Z,100742.94
2023-03-11T21:42:22.895Z,100733.91
2023-03-11T21:44:51.370Z,100712.97
2023-03-11T21:47:18.743Z,100743.63
2023-03-11T21:49:45.688Z,100721.97
2023-03-11T21:52:12.638Z,100711.47
2023-03-11T21:54:39.704Z,100710.66
2023-03-11T21:57:06.855Z,100736.50
2023-03-11T21:59:33.723Z,100712.94
2023-03-11T22:02:03.207Z,100730.09
2023-03-11T22:04:31.524Z,100725.97
2023-03-11T22:06:58.640Z,100704.66
2023-03-11T22:09:26.286Z,100751.66
2023-03-11T22:11:53.981Z,100742.22
2023-03-11T22:14:22.215Z,100736.19
2023-03-11T22:16:49.251Z,100737.22
2023-03-11T22:19:16.277Z,100737.41
2023-03-11T22:21:43.528Z,100731.69
2023-03-11T22:24:10.888Z,100749.25
2023-03-11T22:26:38.131Z,100719.88
2023-03-11T22:29:07.122Z,100718.97
2023-03-11T22:31:35.502Z,100732.31
2023-03-11T22:34:02.483Z,100719.81
2023-03-11T22:36:29.403Z,100746.31
2023-03-11T22:38:56.890Z,100747.00
2023-03-11T22:41:24.178Z,100731.47
2023-03-11T22:43:51.141Z,100722.81
2023-03-11T22:46:18.118Z,100743.66
2023-03-11T22:48:45.181Z,100743.00
2023-03-11T22:51:12.939Z,100734.13
2023-03-11T22:53:39.847Z,100743.66
2023-03-11T22:56:13.713Z,100753.25
2023-03-11T22:58:41.418Z,100762.97
2023-03-11T23:01:09.203Z,100751.34
2023-03-11T23:03:37.344Z,100741.75
2023-03-11T23:06:08.187Z,100743.38
2023-03-11T23:08:35.879Z,100749.13
2023-03-11T23:11:10.276Z,100744.91
2023-03-11T23:13:37.524Z,100734.25
2023-03-11T23:16:12.371Z,100730.84
2023-03-11T23:18:39.506Z,100715.44
2023-03-11T23:21:22.524Z,100727.25
2023-03-11T23:23:49.915Z,100737.97
2023-03-11T23:26:17.779Z,100725.69
2023-03-11T23:28:46.001Z,100726.06
2023-03-11T23:31:15.360Z,100740.59
2023-03-11T23:33:42.931Z,100748.00
2023-03-11T23:36:13.961Z,100737.75
2023-03-11T23:38:40.926Z,100734.94
2023-03-11T23:41:12.437Z,100739.75
2023-03-11T23:43:39.968Z,100724.16
2023-03-11T23:46:07.874Z,100729.72
2023-03-11T23:48:35.260Z,100724.13
2023-03-11T23:51:02.270Z,100727.00
2023-03-11T23:53:29.208Z,100732.78
2023-03-11T23:55:56.105Z,100738.09
2023-03-11T23:58:23.958Z,100737.75
